Time;durP1;ratioP1;P1;durP2;ratioP2;P2;SDS_P1;SDS_P2;PMS_P1;PMS_P2;Temp;Humidity;BMP_temperature;BMP_pressure;BME280_temperature;BME280_humidity;BME280_pressure;Samples;Min_cycle;Max_cycle;Signal;HPM_P1;HPM_P2
2023/04/04 00:00:06;;;;;;;2.58;1.23;;;;;;;5.20;59.48;99991.13;4363090;32;20157;-85
2023/04/04 00:02:32;;;;;;;3.35;1.08;;;;;;;5.06;59.47;99991.25;4375451;32;20119;-85
2023/04/04 00:04:57;;;;;;;4.80;1.42;;;;;;;4.87;59.47;99999.94;4363372;32;20375;-85
2023/04/04 00:07:23;;;;;;;3.00;1.17;;;;;;;5.01;59.47;99998.16;4375304;32;21597;-85
2023/04/04 00:09:48;;;;;;;1.75;1.00;;;;;;;4.82;59.46;100001.69;4362735;32;20445;-85
2023/04/04 00:12:14;;;;;;;3.78;0.98;;;;;;;4.77;59.45;100006.87;4362594;32;20452;-85
2023/04/04 00:14:39;;;;;;;2.50;1.20;;;;;;;4.77;59.45;100000.88;4374898;32;22832;-85
2023/04/04 00:17:05;;;;;;;2.58;0.95;;;;;;;4.86;59.45;100000.81;4375573;32;20090;-85
2023/04/04 00:19:30;;;;;;;3.00;1.33;;;;;;;4.84;59.45;100011.13;4376822;32;20815;-85
2023/04/04 00:21:56;;;;;;;3.97;1.30;;;;;;;4.56;59.44;100005.25;4350502;32;20399;-85
2023/04/04 00:24:21;;;;;;;1.42;1.23;;;;;;;4.41;59.43;100007.00;4375739;32;20180;-83
2023/04/04 00:26:47;;;;;;;2.92;1.10;;;;;;;4.50;59.45;100015.59;4362510;32;20095;-84
2023/04/04 00:29:12;;;;;;;2.70;1.48;;;;;;;4.36;59.44;100017.31;4375410;32;20126;-84
2023/04/04 00:31:38;;;;;;;4.07;1.33;;;;;;;4.22;59.43;100019.06;4362202;32;20363;-85
2023/04/04 00:34:03;;;;;;;2.62;1.40;;;;;;;4.26;59.42;100019.09;4375370;32;20161;-83
2023/04/04 00:36:28;;;;;;;2.08;1.00;;;;;;;4.00;59.42;100021.66;4362663;32;20090;-84
2023/04/04 00:38:54;;;;;;;3.03;1.35;;;;;;;4.15;59.42;100025.97;4362555;32;20145;-84
2023/04/04 00:41:20;;;;;;;2.87;1.33;;;;;;;4.12;59.42;100022.53;4360901;32;20142;-83
2023/04/04 00:43:45;;;;;;;2.55;1.17;;;;;;;4.20;59.43;100021.66;4363484;32;20436;-84
2023/04/04 00:46:13;;;;;;;2.87;1.30;;;;;;;4.16;59.42;100024.25;4375111;32;20170;-85
2023/04/04 00:48:40;;;;;;;3.87;1.60;;;;;;;3.61;59.39;100030.28;4375362;32;20103;-85
2023/04/04 00:51:05;;;;;;;3.83;1.30;;;;;;;3.67;59.39;100024.28;4362642;32;20215;-85
2023/04/04 00:53:31;;;;;;;2.08;1.05;;;;;;;3.45;59.37;100025.97;4375650;32;22047;-84
2023/04/04 00:55:56;;;;;;;4.00;1.40;;;;;;;3.48;59.38;100031.13;4364155;32;20094;-84
2023/04/04 00:58:22;;;;;;;2.87;1.37;;;;;;;3.34;59.38;100023.41;4377336;32;20103;-85
2023/04/04 01:00:48;;;;;;;3.50;1.65;;;;;;;3.51;59.38;100025.12;4364479;32;20162;-83
2023/04/04 01:03:13;;;;;;;4.43;1.30;;;;;;;3.49;59.38;100014.81;4376916;32;20455;-84
2023/04/04 01:05:39;;;;;;;5.05;1.62;;;;;;;3.41;59.38;100015.69;4376991;32;20495;-84
2023/04/04 01:08:05;;;;;;;2.83;1.33;;;;;;;3.33;59.37;100005.38;4377272;32;20095;-84
2023/04/04 01:10:32;;;;;;;5.72;1.40;;;;;;;3.61;59.39;100003.69;4376867;32;20102;-84
2023/04/04 01:12:57;;;;;;;4.45;1.90;;;;;;;3.34;59.37;99995.09;4376998;32;20177;-84
2023/04/04 01:15:22;;;;;;;3.85;1.12;;;;;;;3.16;59.36;99989.91;4377129;32;20740;-84
2023/04/04 01:17:48;;;;;;;3.15;1.55;;;;;;;3.20;59.36;99986.50;4364369;32;20083;-83
2023/04/04 01:20:14;;;;;;;5.47;1.77;;;;;;;3.11;59.36;99981.34;4376884;32;20440;-84
2023/04/04 01:22:40;;;;;;;3.08;1.08;;;;;;;3.14;59.36;99973.62;4371576;32;177535;-84
2023/04/04 01:25:06;;;;;;;2.95;1.23;;;;;;;3.22;59.36;99977.06;4364077;32;20082;-84
2023/04/04 01:27:31;;;;;;;3.55;1.50;;;;;;;3.09;59.36;99975.34;4376947;32;20157;-85
2023/04/04 01:29:56;;;;;;;2.85;1.42;;;;;;;3.00;59.35;99962.44;4364496;32;20098;-83
2023/04/04 01:33:02;;;;;;;3.78;1.42;;;;;;;2.95;59.35;99962.44;4377890;32;20128;-85
2023/04/04 01:35:52;;;;;;;4.53;1.10;;;;;;;3.03;59.36;99957.31;4320097;33;20149;-82
2023/04/04 01:38:26;;;;;;;2.15;1.17;;;;;;;2.84;59.34;99960.69;4319994;33;20163;-84
2023/04/04 01:40:54;;;;;;;2.83;1.40;;;;;;;3.07;59.35;99954.72;4350992;32;20110;-84
2023/04/04 01:43:20;;;;;;;3.97;1.45;;;;;;;3.03;59.35;99949.59;4362679;32;20103;-84
2023/04/04 01:45:45;;;;;;;3.12;1.60;;;;;;;3.11;59.36;99939.34;4373284;32;20118;-83
2023/04/04 01:48:11;;;;;;;2.83;1.37;;;;;;;3.18;59.36;99939.34;4377697;32;20150;-84
2023/04/04 01:50:36;;;;;;;2.50;1.23;;;;;;;3.10;59.36;99935.91;4377696;32;20142;-84
2023/04/04 01:53:02;;;;;;;3.67;1.20;;;;;;;2.95;59.35;99936.72;4365336;32;20153;-84
2023/04/04 01:55:28;;;;;;;3.10;1.30;;;;;;;3.03;59.36;99936.72;4364941;32;20149;-84
2023/04/04 01:57:54;;;;;;;6.47;0.95;;;;;;;2.93;59.34;99924.72;4377681;32;20117;-84
2023/04/04 02:00:19;;;;;;;4.07;1.35;;;;;;;2.91;59.35;99921.31;4352676;32;20118;-84
2023/04/04 02:02:45;;;;;;;2.78;1.35;;;;;;;2.90;59.35;99917.87;4350036;32;20099;-84
2023/04/04 02:05:10;;;;;;;2.65;1.40;;;;;;;2.91;59.34;99914.44;4373813;32;20149;-84
2023/04/04 02:07:36;;;;;;;3.00;1.12;;;;;;;2.75;59.34;99910.97;4377677;32;20086;-84
2023/04/04 02:10:02;;;;;;;2.95;1.12;;;;;;;2.62;59.33;99903.25;4377962;32;20209;-84
2023/04/04 02:12:27;;;;;;;3.22;1.05;;;;;;;2.52;59.33;99898.94;4352787;32;20545;-84
2023/04/04 02:14:53;;;;;;;5.47;1.15;;;;;;;2.43;59.32;99897.19;4378872;32;20186;-84
2023/04/04 02:17:19;;;;;;;5.87;1.25;;;;;;;2.25;59.31;99895.41;4377759;32;20138;-84
2023/04/04 02:19:44;;;;;;;3.47;1.45;;;;;;;2.23;59.31;99897.13;4377820;32;20107;-84
2023/04/04 02:22:10;;;;;;;5.18;1.50;;;;;;;2.35;59.31;99897.16;4377866;32;20131;-85
2023/04/04 02:24:35;;;;;;;2.35;1.30;;;;;;;2.38;59.32;99889.50;4378517;32;20907;-84
2023/04/04 02:27:01;;;;;;;5.60;1.25;;;;;;;2.37;59.32;99885.19;4352379;32;21524;-84
2023/04/04 02:29:26;;;;;;;3.55;0.98;;;;;;;2.41;59.31;99891.19;4380901;32;20170;-84
2023/04/04 02:31:52;;;;;;;2.58;1.12;;;;;;;2.55;59.32;99881.81;4365087;32;20202;-85
2023/04/04 02:34:17;;;;;;;4.10;1.62;;;;;;;2.50;59.33;99880.94;4377547;32;20124;-85
2023/04/04 02:36:43;;;;;;;2.03;1.08;;;;;;;2.55;59.32;99868.97;4352691;32;20158;-85
2023/04/04 02:39:08;;;;;;;3.58;1.30;;;;;;;2.62;59.33;99872.41;4377685;32;20126;-85
2023/04/04 02:41:34;;;;;;;3.20;1.02;;;;;;;2.63;59.33;99874.13;4377567;32;20142;-84
2023/04/04 02:44:00;;;;;;;7.65;1.65;;;;;;;2.63;59.33;99880.13;4365513;32;20399;-84
2023/04/04 02:46:25;;;;;;;5.18;1.70;;;;;;;2.64;59.33;99876.72;4377718;32;20087;-84
2023/04/04 02:48:50;;;;;;;3.20;1.42;;;;;;;2.61;59.33;99876.69;4364975;32;20166;-84
2023/04/04 02:51:16;;;;;;;3.17;1.30;;;;;;;2.71;59.33;99883.56;4365031;32;20107;-84
2023/04/04 02:53:42;;;;;;;3.45;1.27;;;;;;;2.74;59.33;99887.84;4377813;32;20126;-84
2023/04/04 02:56:07;;;;;;;4.10;1.40;;;;;;;2.82;59.34;99880.13;4377401;32;20488;-84
2023/04/04 02:58:33;;;;;;;4.25;1.60;;;;;;;2.88;59.35;99873.31;4377235;32;22341;-84
2023/04/04 03:00:58;;;;;;;2.78;1.20;;;;;;;2.81;59.34;99879.28;4377732;32;20149;-84
2023/04/04 03:03:23;;;;;;;4.00;1.12;;;;;;;2.82;59.34;99881.00;4377630;32;20368;-83
2023/04/04 03:05:49;;;;;;;3.25;1.30;;;;;;;2.97;59.35;99880.16;4378573;32;20086;-84
2023/04/04 03:08:14;;;;;;;2.53;1.40;;;;;;;2.98;59.35;99884.44;4377977;32;20106;-82
2023/04/04 03:10:40;;;;;;;6.40;2.22;;;;;;;3.08;59.35;99888.75;4377954;32;20466;-84
2023/04/04 03:13:05;;;;;;;4.68;1.50;;;;;;;2.98;59.35;99894.72;4377725;32;20133;-84
2023/04/04 03:15:31;;;;;;;3.67;1.27;;;;;;;2.98;59.35;99894.72;4377779;32;20094;-84
2023/04/04 03:17:57;;;;;;;2.80;1.45;;;;;;;3.03;59.36;99900.72;4365406;32;20142;-84
2023/04/04 03:20:23;;;;;;;3.12;1.60;;;;;;;2.96;59.35;99904.16;4378080;32;20110;-85
2023/04/04 03:22:48;;;;;;;3.70;1.30;;;;;;;3.04;59.35;99907.59;4377932;32;20155;-85
2023/04/04 03:25:14;;;;;;;3.58;1.10;;;;;;;2.97;59.35;99898.16;4365483;32;20143;-85
2023/04/04 03:27:40;;;;;;;2.28;1.05;;;;;;;3.11;59.36;99903.34;4365528;32;20389;-85
2023/04/04 03:30:07;;;;;;;3.65;1.17;;;;;;;3.05;59.35;99896.44;4378387;32;20156;-84
2023/04/04 03:32:32;;;;;;;6.37;1.70;;;;;;;3.15;59.35;99894.75;4355596;32;20176;-84
2023/04/04 03:34:58;;;;;;;3.58;1.40;;;;;;;3.11;59.36;99891.31;4394326;32;20154;-84
2023/04/04 03:37:23;;;;;;;3.75;1.27;;;;;;;3.04;59.35;99898.16;4379804;32;24506;-84
2023/04/04 03:39:49;;;;;;;3.15;1.67;;;;;;;3.04;59.35;99897.31;4380156;32;20139;-85
2023/04/04 03:42:14;;;;;;;3.05;1.35;;;;;;;2.92;59.34;99908.44;4380401;32;20164;-85
2023/04/04 03:44:40;;;;;;;4.07;1.52;;;;;;;2.72;59.33;99915.25;4368000;32;20125;-84
2023/04/04 03:47:06;;;;;;;3.90;1.35;;;;;;;2.64;59.33;99912.69;4379971;32;20197;-84
2023/04/04 03:49:32;;;;;;;4.68;1.80;;;;;;;2.66;59.33;99913.53;4393667;32;20150;-84
2023/04/04 03:51:57;;;;;;;3.00;1.37;;;;;;;2.57;59.32;99903.22;4379884;32;20133;-84
2023/04/04 03:54:23;;;;;;;4.10;1.62;;;;;;;2.39;59.31;99906.62;4367562;32;20496;-84
2023/04/04 03:56:48;;;;;;;4.25;1.37;;;;;;;2.48;59.32;99916.06;4379570;32;20094;-84
2023/04/04 03:59:13;;;;;;;4.93;1.95;;;;;;;2.47;59.32;99914.34;4366963;32;26202;-84
2023/04/04 04:01:39;;;;;;;7.30;2.15;;;;;;;2.50;59.31;99908.34;4379333;32;22961;-84
2023/04/04 04:04:05;;;;;;;5.75;1.90;;;;;;;2.43;59.32;99912.63;4355164;32;20142;-84
2023/04/04 04:06:30;;;;;;;5.75;2.00;;;;;;;2.38;59.32;99907.47;4383893;32;20386;-82
2023/04/04 04:08:57;;;;;;;2.75;1.50;;;;;;;2.42;59.32;99904.06;4376350;32;20094;-83
2023/04/04 04:11:22;;;;;;;6.40;1.87;;;;;;;2.39;59.31;99906.62;4386317;32;20090;-84
2023/04/04 04:13:48;;;;;;;3.92;2.10;;;;;;;2.29;59.31;99902.28;4368032;32;20104;-84
2023/04/04 04:16:13;;;;;;;7.12;1.90;;;;;;;2.40;59.31;99907.47;4380381;32;20103;-84
2023/04/04 04:18:39;;;;;;;3.42;1.60;;;;;;;2.40;59.31;99899.75;4379560;32;20106;-85
2023/04/04 04:21:04;;;;;;;4.05;1.65;;;;;;;2.30;59.31;99898.00;4379616;32;20467;-85
2023/04/04 04:23:30;;;;;;;5.60;1.75;;;;;;;2.45;59.32;99900.63;4393487;32;20451;-85
2023/04/04 04:25:55;;;;;;;3.03;1.42;;;;;;;2.49;59.32;99896.34;4367395;32;20142;-84
2023/04/04 04:28:22;;;;;;;6.47;1.95;;;;;;;2.38;59.31;99904.91;4367535;32;22798;-84
2023/04/04 04:30:48;;;;;;;3.42;1.50;;;;;;;2.39;59.32;99903.19;4369358;32;20093;-84
2023/04/04 04:33:13;;;;;;;5.12;2.28;;;;;;;2.46;59.32;99898.06;4395119;32;20140;-83
2023/04/04 04:35:39;;;;;;;3.25;1.95;;;;;;;2.41;59.31;99897.19;4395272;32;20139;-84
2023/04/04 04:38:09;;;;;;;3.30;1.60;;;;;;;2.52;59.33;99896.34;4369394;32;20128;-84
2023/04/04 04:40:35;;;;;;;3.22;1.75;;;;;;;2.58;59.33;99892.09;4383198;32;20119;-84
2023/04/04 04:43:01;;;;;;;8.77;2.00;;;;;;;2.57;59.32;99894.66;4356849;32;20101;-85
2023/04/04 04:45:26;;;;;;;5.03;2.22;;;;;;;2.60;59.32;99886.94;4368860;32;20094;-84
2023/04/04 04:47:52;;;;;;;4.28;2.08;;;;;;;2.59;59.33;99891.22;4381464;32;20149;-84
2023/04/04 04:50:17;;;;;;;5.28;2.03;;;;;;;2.68;59.33;99886.13;4368801;32;20466;-84
2023/04/04 04:52:43;;;;;;;6.65;2.55;;;;;;;2.52;59.32;99893.78;4368332;32;21236;-84
2023/04/04 04:55:08;;;;;;;5.75;2.40;;;;;;;2.44;59.32;99893.78;4380965;32;20391;-83
2023/04/04 04:57:34;;;;;;;5.18;1.90;;;;;;;2.56;59.32;99893.78;4381262;32;20099;-84
2023/04/04 05:00:00;;;;;;;6.37;2.40;;;;;;;2.69;59.33;99892.13;4381598;32;20432;-82
2023/04/04 05:02:26;;;;;;;6.87;2.42;;;;;;;2.70;59.33;99896.41;4369741;32;20446;-83
2023/04/04 05:04:51;;;;;;;4.03;2.33;;;;;;;2.90;59.35;99899.03;4381241;32;20135;-84
2023/04/04 05:07:17;;;;;;;5.95;3.53;;;;;;;2.92;59.34;99900.72;4399034;32;20448;-85
2023/04/04 05:09:42;;;;;;;5.78;2.37;;;;;;;3.10;59.36;99894.75;4368759;32;20479;-84
2023/04/04 05:12:08;;;;;;;4.50;2.28;;;;;;;3.06;59.35;99887.88;4380596;32;22377;-85
2023/04/04 05:14:33;;;;;;;6.30;2.35;;;;;;;2.98;59.35;99884.44;4380682;32;20154;-85
2023/04/04 05:16:58;;;;;;;6.95;2.80;;;;;;;2.94;59.34;99890.44;4394887;32;20150;-85
2023/04/04 05:19:24;;;;;;;4.82;2.85;;;;;;;3.05;59.35;99891.31;4381642;32;20130;-85
2023/04/04 05:21:50;;;;;;;6.72;2.67;;;;;;;3.17;59.36;99891.31;4369221;32;20168;-85
2023/04/04 05:24:16;;;;;;;6.97;2.60;;;;;;;3.10;59.36;99894.75;4381407;32;20140;-86
2023/04/04 05:26:41;;;;;;;8.00;3.20;;;;;;;3.24;59.37;99893.03;4368820;32;20098;-85
2023/04/04 05:29:07;;;;;;;9.38;3.08;;;;;;;3.11;59.36;99899.03;4368088;32;20116;-85
2023/04/04 05:31:32;;;;;;;6.62;2.25;;;;;;;3.21;59.37;99892.19;4367836;32;22005;-85
2023/04/04 05:33:59;;;;;;;6.45;2.15;;;;;;;3.12;59.36;99895.63;4366908;32;20154;-85
2023/04/04 05:36:24;;;;;;;5.75;2.30;;;;;;;3.22;59.36;99881.03;4380865;32;20176;-85
2023/04/04 05:38:49;;;;;;;8.80;2.58;;;;;;;3.23;59.37;99887.88;4377325;32;20115;-86
2023/04/04 05:41:15;;;;;;;4.65;2.05;;;;;;;3.28;59.37;99891.31;4364657;32;35716;-86
2023/04/04 05:43:40;;;;;;;4.70;2.08;;;;;;;3.21;59.36;99900.75;4353264;32;20102;-84
2023/04/04 05:46:06;;;;;;;5.70;2.12;;;;;;;3.22;59.36;99906.75;4378211;32;20143;-83
2023/04/04 05:48:31;;;;;;;5.80;2.20;;;;;;;3.34;59.37;99909.34;4378503;32;20112;-84
2023/04/04 05:50:57;;;;;;;4.65;1.83;;;;;;;3.27;59.37;99911.03;4392598;32;20110;-84
2023/04/04 05:53:22;;;;;;;5.55;2.80;;;;;;;3.42;59.37;99912.75;4391374;32;20198;-84
2023/04/04 05:55:52;;;;;;;6.50;2.00;;;;;;;3.50;59.38;99908.44;4387984;32;35900;-85
2023/04/04 05:58:17;;;;;;;7.10;2.50;;;;;;;3.71;59.39;99902.41;4380804;32;20098;-84
2023/04/04 06:00:42;;;;;;;3.75;1.77;;;;;;;3.60;59.38;99904.16;4380560;32;20154;-86
2023/04/04 06:03:08;;;;;;;7.03;2.53;;;;;;;3.85;59.40;99903.25;4372116;32;20101;-86
2023/04/04 06:05:34;;;;;;;6.70;2.17;;;;;;;3.89;59.40;99902.37;4368321;32;20130;-85
2023/04/04 06:07:59;;;;;;;3.62;1.90;;;;;;;4.03;59.41;99904.06;4380134;32;25413;-85
2023/04/04 06:10:25;;;;;;;5.43;2.03;;;;;;;3.97;59.41;99905.78;4368358;32;20146;-86
2023/04/04 06:12:50;;;;;;;8.20;1.90;;;;;;;3.99;59.41;99905.78;4380366;32;20456;-86
2023/04/04 06:15:16;;;;;;;3.85;1.70;;;;;;;4.22;59.42;99905.69;4380404;32;22910;-86
2023/04/04 06:17:41;;;;;;;8.68;2.33;;;;;;;4.24;59.42;99907.41;4368196;32;20515;-86
2023/04/04 06:20:07;;;;;;;4.10;1.85;;;;;;;4.40;59.43;99897.03;4367578;32;31698;-86
2023/04/04 06:22:33;;;;;;;7.22;1.87;;;;;;;4.71;59.44;99908.91;4366903;32;20118;-85
2023/04/04 06:24:59;;;;;;;4.07;1.77;;;;;;;4.93;59.46;99902.75;4380081;32;20156;-86
2023/04/04 06:27:24;;;;;;;5.82;2.33;;;;;;;4.93;59.46;99897.59;4380292;32;20110;-86
2023/04/04 06:29:50;;;;;;;4.15;2.00;;;;;;;5.09;59.47;99900.06;4368219;32;20082;-86
2023/04/04 06:32:15;;;;;;;2.97;1.42;;;;;;;5.30;59.48;99891.31;4380363;32;20469;-87
2023/04/04 06:34:40;;;;;;;5.12;1.98;;;;;;;5.45;59.49;99878.28;4380486;32;20144;-87
2023/04/04 06:37:06;;;;;;;2.33;1.12;;;;;;;5.67;59.50;99864.25;4379943;32;24537;-87
2023/04/04 06:39:33;;;;;;;4.15;1.62;;;;;;;5.87;59.51;99859.72;4380879;32;25320;-85
2023/04/04 06:41:59;;;;;;;2.05;1.17;;;;;;;5.83;59.52;99846.88;4379932;32;20114;-86
2023/04/04 06:44:24;;;;;;;4.10;1.50;;;;;;;5.97;59.52;99845.03;4379439;32;20158;-85
2023/04/04 06:46:50;;;;;;;4.25;1.02;;;;;;;5.96;59.52;99843.31;4367022;32;20150;-85
2023/04/04 06:49:15;;;;;;;3.55;1.20;;;;;;;6.07;59.53;99838.00;4379399;32;20094;-87
2023/04/04 06:51:41;;;;;;;1.85;1.15;;;;;;;6.00;59.52;99839.81;4366993;32;20170;-87
2023/04/04 06:54:07;;;;;;;5.15;1.33;;;;;;;5.84;59.52;99833.09;4379870;32;20111;-86
2023/04/04 06:56:33;;;;;;;2.00;0.93;;;;;;;6.10;59.53;99832.81;4368122;32;20158;-86
2023/04/04 06:58:58;;;;;;;5.70;1.52;;;;;;;6.00;59.52;99845.00;4366589;32;20098;-85
2023/04/04 07:01:24;;;;;;;3.42;1.20;;;;;;;5.72;59.50;99854.75;4369336;32;20122;-86
2023/04/04 07:03:53;;;;;;;3.03;1.20;;;;;;;5.70;59.51;99856.50;4378918;32;20098;-85
2023/04/04 07:06:20;;;;;;;2.72;0.98;;;;;;;5.60;59.50;99852.28;4378726;32;20137;-85
2023/04/04 07:08:46;;;;;;;3.83;1.80;;;;;;;5.56;59.50;99853.19;4369033;32;20193;-86
2023/04/04 07:11:12;;;;;;;5.37;1.20;;;;;;;5.73;59.50;99863.34;4369211;32;20107;-86
2023/04/04 07:13:37;;;;;;;1.77;1.00;;;;;;;5.62;59.50;99858.28;4368139;32;20132;-87
2023/04/04 07:16:03;;;;;;;3.10;1.15;;;;;;;5.58;59.50;99863.50;4367480;32;20098;-87
2023/04/04 07:18:29;;;;;;;4.65;1.42;;;;;;;5.67;59.50;99868.56;4367607;32;20144;-87
2023/04/04 07:20:54;;;;;;;5.32;1.08;;;;;;;5.75;59.50;99857.31;4367812;32;20132;-86
2023/04/04 07:23:20;;;;;;;2.37;0.95;;;;;;;5.90;59.51;99870.94;4367456;32;20371;-87
2023/04/04 07:25:46;;;;;;;2.47;1.00;;;;;;;5.84;59.52;99877.00;4367266;32;20122;-87
2023/04/04 07:28:11;;;;;;;2.67;1.37;;;;;;;5.81;59.51;99872.72;4367735;32;20161;-87
2023/04/04 07:30:36;;;;;;;2.45;1.45;;;;;;;5.92;59.52;99871.81;4380050;32;20201;-87
2023/04/04 07:33:03;;;;;;;3.87;1.25;;;;;;;6.12;59.52;99870.66;4367816;32;20141;-87
2023/04/04 07:35:28;;;;;;;3.33;1.05;;;;;;;6.06;59.53;99878.50;4369835;32;20086;-87
2023/04/04 07:37:54;;;;;;;2.33;1.35;;;;;;;6.09;59.53;99864.69;4367767;32;20108;-87
2023/04/04 07:40:19;;;;;;;3.58;1.10;;;;;;;6.33;59.54;99866.13;4367651;32;20126;-87
2023/04/04 07:42:45;;;;;;;5.10;1.85;;;;;;;6.37;59.54;99866.03;4379667;32;31666;-87
2023/04/04 07:45:11;;;;;;;5.68;2.15;;;;;;;6.61;59.56;99864.00;4380339;32;20502;-86
2023/04/04 07:47:37;;;;;;;6.28;1.92;;;;;;;6.77;59.56;99865.50;4367871;32;20140;-86
2023/04/04 07:50:03;;;;;;;5.55;2.30;;;;;;;6.99;59.58;99864.31;4367600;32;20138;-86
2023/04/04 07:52:28;;;;;;;4.40;1.60;;;;;;;7.12;59.59;99861.53;4380077;32;20466;-86
2023/04/04 07:54:54;;;;;;;4.45;2.05;;;;;;;7.22;59.58;99855.31;4370419;32;20081;-84
2023/04/04 07:57:19;;;;;;;4.78;2.03;;;;;;;7.54;59.60;99854.75;4368030;32;20143;-85
2023/04/04 07:59:46;;;;;;;3.90;1.70;;;;;;;7.73;59.62;99866.50;4380217;32;20477;-85
2023/04/04 08:02:11;;;;;;;9.07;3.10;;;;;;;7.85;59.63;99862.81;4379560;32;20129;-85
2023/04/04 08:04:36;;;;;;;5.68;1.95;;;;;;;7.85;59.63;99858.50;4367316;32;20122;-86
2023/04/04 08:07:02;;;;;;;4.37;1.73;;;;;;;7.84;59.63;99851.59;4379811;32;20134;-85
2023/04/04 08:09:33;;;;;;;6.68;2.47;;;;;;;7.74;59.62;99857.81;4367286;32;20114;-86
2023/04/04 08:11:58;;;;;;;4.40;1.67;;;;;;;7.70;59.62;99856.19;4368525;32;20479;-85
2023/04/04 08:14:24;;;;;;;3.85;1.60;;;;;;;7.94;59.64;99847.94;4380059;32;20102;-86
2023/04/04 08:16:50;;;;;;;7.32;2.00;;;;;;;8.05;59.64;99862.44;4380051;32;20105;-86
2023/04/04 08:19:16;;;;;;;3.30;1.65;;;;;;;8.24;59.65;99859.41;4368490;32;20115;-86
2023/04/04 08:21:43;;;;;;;8.32;2.08;;;;;;;8.27;59.65;99858.50;4379062;32;20079;-84
2023/04/04 08:24:09;;;;;;;4.72;1.60;;;;;;;8.20;59.65;99865.56;4375879;32;20447;-85
2023/04/04 08:26:34;;;;;;;5.22;2.28;;;;;;;8.03;59.64;99867.62;4380126;32;20124;-86
2023/04/04 08:29:00;;;;;;;3.30;2.00;;;;;;;8.18;59.64;99867.34;4354563;32;20177;-85
2023/04/04 08:31:25;;;;;;;5.50;1.92;;;;;;;8.32;59.65;99864.47;4364537;32;20485;-86
2023/04/04 08:33:51;;;;;;;3.90;1.83;;;;;;;8.40;59.66;99865.19;4364797;32;20135;-86
2023/04/04 08:36:17;;;;;;;5.70;1.45;;;;;;;8.39;59.66;99852.25;4364535;32;20416;-85
2023/04/04 08:38:43;;;;;;;3.72;2.33;;;;;;;8.38;59.66;99866.09;4377147;32;20408;-86
2023/04/04 08:41:09;;;;;;;5.60;1.90;;;;;;;8.52;59.67;99856.28;4364609;32;20106;-85
2023/04/04 08:43:34;;;;;;;5.62;2.15;;;;;;;8.53;59.67;99858.00;4364783;32;20117;-86
2023/04/04 08:46:00;;;;;;;2.78;1.48;;;;;;;8.73;59.67;99853.19;4376347;32;33235;-85
2023/04/04 08:48:25;;;;;;;3.47;1.30;;;;;;;8.74;59.68;99860.09;4364252;32;21280;-86
2023/04/04 08:50:56;;;;;;;5.62;1.85;;;;;;;8.73;59.67;99855.78;4365044;32;20130;-85
2023/04/04 08:53:21;;;;;;;2.92;1.30;;;;;;;8.70;59.67;99844.62;4364953;32;20082;-85
2023/04/04 08:55:46;;;;;;;4.75;1.70;;;;;;;8.64;59.67;99840.44;4363137;32;37157;-85
2023/04/04 08:58:12;;;;;;;2.87;1.35;;;;;;;8.43;59.66;99838.31;4363812;32;20134;-86
2023/04/04 09:00:39;;;;;;;4.90;1.77;;;;;;;8.38;59.66;99841.03;4362996;32;32600;-85
2023/04/04 09:03:09;;;;;;;2.35;1.05;;;;;;;8.24;59.65;99854.22;4363957;32;20091;-86
2023/04/04 09:05:34;;;;;;;3.40;1.45;;;;;;;8.11;59.64;99832.06;4376235;32;20086;-86
2023/04/04 09:07:59;;;;;;;2.53;1.17;;;;;;;7.97;59.63;99841.84;4376167;32;20145;-87
2023/04/04 09:10:25;;;;;;;3.28;1.30;;;;;;;7.98;59.63;99830.59;4376082;32;20098;-85
2023/04/04 09:12:51;;;;;;;3.22;1.10;;;;;;;8.15;59.65;99830.25;4363544;32;20110;-86
2023/04/04 09:15:16;;;;;;;3.87;1.25;;;;;;;8.34;59.66;99835.94;4377861;32;20103;-85
2023/04/04 09:17:42;;;;;;;3.15;1.15;;;;;;;8.38;59.66;99834.97;4378141;32;20126;-85
2023/04/04 09:20:39;;;;;;;2.55;1.15;;;;;;;8.46;59.66;99823.53;4365473;32;20165;-85
2023/04/04 09:23:19;;;;;;;2.50;1.10;;;;;;;8.54;59.67;99836.34;4378201;32;20184;-86
2023/04/04 09:25:48;;;;;;;2.13;1.10;;;;;;;8.25;59.65;99840.37;4366593;32;20090;-86
2023/04/04 09:28:14;;;;;;;3.50;1.27;;;;;;;8.21;59.64;99845.66;4378091;32;20188;-85
2023/04/04 09:30:39;;;;;;;2.70;1.33;;;;;;;8.18;59.65;99832.78;4353015;32;20132;-85
2023/04/04 09:33:05;;;;;;;2.75;1.40;;;;;;;8.22;59.65;99830.06;4365448;32;20099;-85
2023/04/04 09:35:33;;;;;;;3.67;1.23;;;;;;;8.48;59.66;99832.13;4365746;32;20101;-86
2023/04/04 09:37:59;;;;;;;3.85;1.30;;;;;;;8.59;59.68;99831.91;4365719;32;20194;-85
2023/04/04 09:40:26;;;;;;;2.55;1.30;;;;;;;8.69;59.68;99833.41;4378079;32;20114;-86
2023/04/04 09:42:53;;;;;;;2.22;1.20;;;;;;;8.89;59.69;99823.41;4365933;32;20090;-86
2023/04/04 09:45:19;;;;;;;3.05;1.30;;;;;;;8.99;59.69;99816.28;4365755;32;20074;-86
2023/04/04 09:47:44;;;;;;;4.90;2.17;;;;;;;9.06;59.70;99816.97;4378051;32;20141;-85
2023/04/04 09:50:13;;;;;;;3.65;1.60;;;;;;;9.10;59.70;99826.37;4377681;32;20441;-86
2023/04/04 09:52:39;;;;;;;4.72;1.67;;;;;;;9.10;59.70;99810.78;4365590;32;20086;-85
2023/04/04 09:55:05;;;;;;;6.18;2.22;;;;;;;9.16;59.70;99813.22;4365432;32;20087;-85
2023/04/04 09:57:34;;;;;;;6.05;2.33;;;;;;;9.13;59.70;99819.34;4365502;32;20129;-86
2023/04/04 10:00:01;;;;;;;1.75;1.10;;;;;;;9.07;59.70;99813.47;4365591;32;20110;-85
2023/04/04 10:02:29;;;;;;;1.98;1.23;;;;;;;8.80;59.68;99813.25;4365570;32;20094;-85
2023/04/04 10:04:56;;;;;;;2.15;1.25;;;;;;;8.96;59.69;99807.69;4365689;32;20095;-85
2023/04/04 10:07:22;;;;;;;3.05;1.73;;;;;;;9.13;59.71;99818.50;4365746;32;20106;-85
2023/04/04 10:09:51;;;;;;;5.05;1.85;;;;;;;9.35;59.72;99821.41;4365483;32;20129;-85
2023/04/04 10:12:16;;;;;;;3.08;1.40;;;;;;;9.37;59.71;99817.87;4377728;32;20104;-85
2023/04/04 10:14:42;;;;;;;3.55;1.17;;;;;;;9.45;59.72;99809.87;4365171;32;20083;-85
2023/04/04 10:17:09;;;;;;;2.67;1.20;;;;;;;9.51;59.73;99804.53;4377808;32;20131;-85
2023/04/04 10:19:36;;;;;;;5.32;2.08;;;;;;;9.78;59.74;99808.13;4365573;32;20114;-85
2023/04/04 10:22:02;;;;;;;2.78;1.10;;;;;;;9.91;59.75;99795.63;4365449;32;20116;-85
2023/04/04 10:24:28;;;;;;;2.25;1.20;;;;;;;10.01;59.76;99800.53;4365486;32;20114;-85
2023/04/04 10:26:54;;;;;;;4.22;1.55;;;;;;;9.94;59.75;99792.97;4364555;32;20135;-85
2023/04/04 10:29:20;;;;;;;4.82;1.40;;;;;;;9.70;59.73;99782.34;4365170;32;20550;-85
2023/04/04 10:31:46;;;;;;;2.62;1.23;;;;;;;9.96;59.75;99785.97;4377595;32;20090;-85
2023/04/04 10:34:30;;;;;;;3.00;1.15;;;;;;;10.19;59.77;99774.88;4365322;32;20257;-85
2023/04/04 10:37:14;;;;;;;3.87;2.25;;;;;;;10.45;59.78;99780.19;4366102;32;20436;-85
2023/04/04 10:39:50;;;;;;;2.37;1.23;;;;;;;10.38;59.77;99776.03;4377562;32;20094;-85
2023/04/04 10:42:15;;;;;;;3.45;1.48;;;;;;;10.34;59.77;99769.22;4366234;32;20090;-85
2023/04/04 10:44:41;;;;;;;2.33;1.02;;;;;;;10.32;59.77;99768.44;4364642;32;22580;-85
2023/04/04 10:47:17;;;;;;;2.80;1.25;;;;;;;10.73;59.79;99768.00;4365208;32;20162;-86
2023/04/04 10:49:43;;;;;;;2.30;1.30;;;;;;;10.94;59.81;99766.44;4365161;32;20394;-86
2023/04/04 10:52:10;;;;;;;2.83;1.65;;;;;;;10.80;59.80;99760.81;4365251;32;20545;-85
2023/04/04 10:54:35;;;;;;;4.28;1.30;;;;;;;10.86;59.80;99752.78;4365285;32;20134;-85
2023/04/04 10:57:02;;;;;;;2.37;1.50;;;;;;;11.14;59.82;99768.38;4364494;32;28672;-85
2023/04/04 10:59:28;;;;;;;3.47;1.35;;;;;;;11.04;59.80;99762.59;4365324;32;20114;-85
2023/04/04 11:01:57;;;;;;;4.78;1.75;;;;;;;11.22;59.83;99765.50;4365199;32;20463;-85
2023/04/04 11:04:33;;;;;;;4.37;1.73;;;;;;;11.11;59.81;99760.62;4377463;32;20146;-85
2023/04/04 11:07:17;;;;;;;3.25;1.40;;;;;;;11.20;59.82;99754.28;4365372;32;20107;-86
2023/04/04 11:09:50;;;;;;;2.53;1.40;;;;;;;11.11;59.81;99762.41;4377596;32;20412;-86
2023/04/04 11:12:22;;;;;;;5.22;1.40;;;;;;;11.29;59.83;99760.00;4377452;32;20125;-86
2023/04/04 11:14:59;;;;;;;3.08;1.80;;;;;;;11.18;59.82;99754.34;4366307;32;20183;-85
2023/04/04 11:17:56;;;;;;;5.47;1.60;;;;;;;11.10;59.82;99750.28;4377353;32;20111;-85
2023/04/04 11:20:29;;;;;;;3.50;1.33;;;;;;;11.13;59.82;99747.59;4378130;32;20132;-85
2023/04/04 11:23:24;;;;;;;3.47;1.60;;;;;;;11.13;59.81;99752.81;4377357;32;20156;-85
2023/04/04 11:25:58;;;;;;;2.33;1.30;;;;;;;11.05;59.82;99764.31;4376324;32;20477;-86
2023/04/04 11:28:24;;;;;;;2.80;1.50;;;;;;;11.06;59.82;99755.59;4365143;32;20162;-85
2023/04/04 11:31:16;;;;;;;5.15;1.55;;;;;;;11.36;59.82;99743.28;4377342;32;20467;-86
2023/04/04 11:34:03;;;;;;;4.55;1.60;;;;;;;11.31;59.83;99750.37;4378397;32;20090;-86
2023/04/04 11:36:35;;;;;;;3.62;1.70;;;;;;;11.22;59.83;99755.06;4378433;32;20138;-85